createdAt,value
2022-09-15T00:00:00.197Z,1.90
2022-09-15T00:02:26.849Z,2.45
2022-09-15T00:04:53.470Z,1.83
2022-09-15T00:07:20.622Z,2.10
2022-09-15T00:09:47.181Z,2.95
2022-09-15T00:12:13.689Z,2.00
2022-09-15T00:14:40.304Z,1.92
2022-09-15T00:17:06.953Z,1.98
2022-09-15T00:19:33.516Z,2.17
2022-09-15T00:22:00.036Z,2.03
2022-09-15T00:24:26.599Z,2.25
2022-09-15T00:26:53.196Z,2.10
2022-09-15T00:29:19.711Z,2.20
2022-09-15T00:31:46.346Z,2.58
2022-09-15T00:34:13.985Z,2.35
2022-09-15T00:36:40.869Z,2.00
2022-09-15T00:39:07.469Z,2.10
2022-09-15T00:41:34.377Z,2.72
2022-09-15T00:44:04.409Z,1.95
2022-09-15T00:46:38.210Z,2.47
2022-09-15T00:49:23.533Z,2.60
2022-09-15T00:51:56.774Z,3.15
2022-09-15T00:54:31.545Z,3.20
2022-09-15T00:57:01.758Z,3.17
2022-09-15T00:59:31.769Z,3.45
2022-09-15T01:02:15.701Z,3.63
2022-09-15T01:04:42.757Z,3.75
2022-09-15T01:07:14.270Z,4.07
2022-09-15T01:09:56.854Z,3.83
2022-09-15T01:12:24.771Z,3.88
2022-09-15T01:14:51.301Z,3.45
2022-09-15T01:17:33.980Z,3.10
2022-09-15T01:20:34.915Z,3.25
2022-09-15T01:23:11.455Z,3.10
2022-09-15T01:26:19.628Z,3.22
2022-09-15T01:29:21.946Z,2.65
2022-09-15T01:32:32.158Z,2.90
2022-09-15T01:35:11.334Z,2.30
2022-09-15T01:37:43.729Z,2.00
2022-09-15T01:40:14.365Z,2.00
2022-09-15T01:42:44.057Z,2.25
2022-09-15T01:45:21.723Z,2.10
2022-09-15T01:47:53.779Z,1.50
2022-09-15T01:50:25.793Z,1.80
2022-09-15T01:52:56.862Z,1.83
2022-09-15T01:55:30.109Z,1.67
2022-09-15T01:57:58.514Z,1.67
2022-09-15T02:00:25.076Z,1.40
2022-09-15T02:02:59.873Z,1.98
2022-09-15T02:05:35.774Z,1.55
2022-09-15T02:08:08.777Z,1.90
2022-09-15T02:10:40.990Z,1.73
2022-09-15T02:13:32.280Z,1.92
2022-09-15T02:16:00.374Z,1.92
2022-09-15T02:18:50.390Z,1.73
2022-09-15T02:21:25.085Z,2.00
2022-09-15T02:23:56.974Z,2.00
2022-09-15T02:26:27.681Z,1.92
2022-09-15T02:28:57.946Z,2.42
2022-09-15T02:31:26.452Z,2.30
2022-09-15T02:34:03.138Z,2.28
2022-09-15T02:36:31.104Z,2.60
2022-09-15T02:39:04.862Z,2.78
2022-09-15T02:41:32.714Z,3.38
2022-09-15T02:43:59.323Z,3.42
2022-09-15T02:46:25.932Z,2.70
2022-09-15T02:48:53.238Z,3.75
2022-09-15T02:51:20.161Z,4.15
2022-09-15T02:53:46.757Z,3.65
2022-09-15T02:56:13.669Z,4.10
2022-09-15T02:58:40.197Z,4.53
2022-09-15T03:01:08.020Z,4.03
2022-09-15T03:03:34.976Z,4.10
2022-09-15T03:06:17.377Z,5.45
2022-09-15T03:09:05.889Z,4.47
2022-09-15T03:11:33.513Z,4.30
2022-09-15T03:14:03.218Z,4.90
2022-09-15T03:16:31.590Z,5.32
2022-09-15T03:18:59.527Z,6.18
2022-09-15T03:21:29.255Z,6.20
2022-09-15T03:23:57.720Z,6.32
2022-09-15T03:26:25.310Z,6.22
2022-09-15T03:28:51.861Z,7.43
2022-09-15T03:31:19.737Z,6.97
2022-09-15T03:33:47.110Z,7.05
2022-09-15T03:36:13.633Z,8.02
2022-09-15T03:38:40.290Z,7.68
2022-09-15T03:41:10.590Z,7.55
2022-09-15T03:43:38.245Z,7.88
2022-09-15T03:46:06.694Z,7.60
2022-09-15T03:48:35.374Z,8.05
2022-09-15T03:51:03.865Z,7.40
2022-09-15T03:53:35.248Z,8.02
2022-09-15T03:56:18.183Z,7.75
2022-09-15T03:58:44.909Z,7.93
2022-09-15T04:01:12.393Z,8.70
2022-09-15T04:03:45.295Z,9.05
2022-09-15T04:08:41.756Z,8.30
2022-09-15T04:11:10.794Z,8.73
2022-09-15T04:13:38.999Z,8.40
2022-09-15T04:16:09.868Z,8.63
2022-09-15T04:18:36.833Z,9.82
2022-09-15T04:21:10.585Z,8.18
2022-09-15T04:23:37.677Z,8.25
2022-09-15T04:26:06.830Z,7.88
2022-09-15T04:28:36.341Z,7.97
2022-09-15T04:31:05.174Z,8.68
2022-09-15T04:33:32.027Z,7.47
2022-09-15T04:36:03.837Z,8.27
2022-09-15T04:38:31.382Z,8.48
2022-09-15T04:40:58.716Z,6.50
2022-09-15T04:43:27.004Z,6.70
2022-09-15T04:45:54.885Z,6.50
2022-09-15T04:48:22.345Z,6.25
2022-09-15T04:50:49.242Z,6.63
2022-09-15T04:53:16.286Z,6.88
2022-09-15T04:55:43.087Z,6.63
2022-09-15T04:58:09.661Z,6.70
2022-09-15T05:00:43.422Z,7.90
2022-09-15T05:03:11.230Z,6.88
2022-09-15T05:05:38.340Z,8.30
2022-09-15T05:08:05.103Z,7.15
2022-09-15T05:10:31.774Z,8.32
2022-09-15T05:12:58.390Z,7.40
2022-09-15T05:15:25.221Z,7.20
2022-09-15T05:17:51.750Z,6.82
2022-09-15T05:20:18.750Z,6.25
2022-09-15T05:22:45.497Z,6.20
2022-09-15T05:25:12.030Z,6.38
2022-09-15T05:27:39.275Z,5.93
2022-09-15T05:30:32.707Z,5.88
2022-09-15T05:32:53.908Z,5.50
2022-09-15T05:35:20.478Z,6.65
2022-09-15T05:37:47.206Z,5.85
2022-09-15T05:40:13.890Z,5.10
2022-09-15T05:42:40.544Z,4.80
2022-09-15T05:45:07.845Z,4.47
2022-09-15T05:47:34.355Z,4.35
2022-09-15T05:50:00.876Z,4.38
2022-09-15T05:52:27.353Z,4.57
2022-09-15T05:54:58.874Z,4.60
2022-09-15T05:57:25.847Z,4.70
2022-09-15T05:59:52.482Z,5.43
2022-09-15T06:02:19.091Z,4.07
2022-09-15T06:04:45.713Z,5.03
2022-09-15T06:07:12.419Z,4.72
2022-09-15T06:09:39.347Z,4.70
2022-09-15T06:12:06.087Z,4.22
2022-09-15T06:14:32.679Z,4.43
2022-09-15T06:16:59.239Z,4.50
2022-09-15T06:19:25.784Z,3.47
2022-09-15T06:21:53.911Z,4.72
2022-09-15T06:24:20.481Z,4.60
2022-09-15T06:26:47.158Z,3.78
2022-09-15T06:29:14.056Z,3.70
2022-09-15T06:31:40.665Z,4.20
2022-09-15T06:34:08.517Z,4.25
2022-09-15T06:36:37.535Z,4.85
2022-09-15T06:39:04.557Z,4.68
2022-09-15T06:41:52.551Z,4.90
2022-09-15T06:44:18.932Z,4.30
2022-09-15T06:46:45.732Z,4.20
2022-09-15T06:49:12.311Z,5.32
2022-09-15T06:51:38.923Z,5.20
2022-09-15T06:54:06.095Z,5.22
2022-09-15T06:56:37.680Z,5.38
2022-09-15T06:59:04.976Z,5.18
2022-09-15T07:01:32.740Z,5.53
2022-09-15T07:04:00.870Z,4.43
2022-09-15T07:06:29.128Z,4.72
2022-09-15T07:08:56.587Z,4.88
2022-09-15T07:11:23.078Z,4.40
2022-09-15T07:13:50.486Z,4.68
2022-09-15T07:16:19.212Z,4.60
2022-09-15T07:18:47.073Z,4.25
2022-09-15T07:21:19.704Z,4.38
2022-09-15T07:23:47.598Z,3.95
2022-09-15T07:26:17.442Z,4.10
2022-09-15T07:28:46.989Z,4.10
2022-09-15T07:31:16.860Z,4.00
2022-09-15T07:33:43.705Z,3.90
2022-09-15T07:36:10.693Z,4.32
2022-09-15T07:38:45.326Z,3.97
2022-09-15T07:41:20.651Z,3.80
2022-09-15T07:43:48.657Z,3.53
2022-09-15T07:46:16.542Z,3.72
2022-09-15T07:48:48.188Z,3.80
2022-09-15T07:51:15.562Z,3.90
2022-09-15T07:53:43.463Z,3.40
2022-09-15T07:56:10.138Z,3.55
2022-09-15T07:58:36.894Z,3.75
2022-09-15T08:01:05.452Z,2.92
2022-09-15T08:03:32.302Z,3.15
2022-09-15T08:05:59.837Z,2.97
2022-09-15T08:08:26.446Z,2.80
2022-09-15T08:10:53.052Z,2.70
2022-09-15T08:13:19.988Z,2.60
2022-09-15T08:15:47.718Z,2.60
2022-09-15T08:18:14.950Z,2.50
2022-09-15T08:20:42.217Z,2.28
2022-09-15T08:23:09.547Z,2.20
2022-09-15T08:25:36.057Z,2.30
2022-09-15T08:28:02.850Z,2.15
2022-09-15T08:30:29.520Z,2.33
2022-09-15T08:32:56.283Z,2.17
2022-09-15T08:35:23.472Z,2.30
2022-09-15T08:37:52.690Z,2.20
2022-09-15T08:40:26.659Z,2.20
2022-09-15T08:42:57.132Z,1.75
2022-09-15T08:45:27.690Z,1.80
2022-09-15T08:47:59.805Z,1.80
2022-09-15T08:50:28.279Z,2.05
2022-09-15T08:53:00.789Z,2.30
2022-09-15T08:55:37.258Z,2.00
2022-09-15T08:58:05.162Z,1.92
2022-09-15T09:00:33.347Z,1.73
2022-09-15T09:03:41.801Z,1.63
2022-09-15T09:06:20.818Z,1.83
2022-09-15T09:09:03.124Z,2.20
2022-09-15T09:11:38.526Z,1.90
2022-09-15T09:14:13.965Z,2.42
2022-09-15T09:16:57.317Z,1.58
2022-09-15T09:19:32.199Z,2.30
2022-09-15T09:24:44.936Z,1.60
2022-09-15T09:27:19.472Z,1.80
2022-09-15T09:29:51.486Z,1.75
2022-09-15T09:32:31.076Z,1.80
2022-09-15T09:35:28.509Z,1.60
2022-09-15T09:37:55.466Z,1.20
2022-09-15T09:40:22.946Z,1.00
2022-09-15T09:42:49.883Z,0.90
2022-09-15T09:45:18.874Z,0.98
2022-09-15T09:47:46.297Z,1.25
2022-09-15T09:50:38.940Z,1.17
2022-09-15T09:53:28.615Z,1.42
2022-09-15T09:56:12.303Z,1.20
2022-09-15T09:58:38.925Z,1.20
2022-09-15T10:01:17.655Z,1.60
2022-09-15T10:03:45.153Z,1.20
2022-09-15T10:06:22.005Z,1.50
2022-09-15T10:08:58.681Z,1.50
2022-09-15T10:11:58.528Z,1.20
2022-09-15T10:14:31.340Z,1.70
2022-09-15T10:17:01.046Z,1.60
2022-09-15T10:19:30.177Z,1.52
2022-09-15T10:21:58.453Z,1.65
2022-09-15T10:24:27.779Z,1.88
2022-09-15T10:27:15.844Z,1.70
2022-09-15T10:29:42.370Z,1.55
2022-09-15T10:32:25.243Z,1.42
2022-09-15T10:35:04.476Z,1.75
2022-09-15T10:37:36.573Z,1.92
2022-09-15T10:40:44.768Z,2.20
2022-09-15T10:43:24.283Z,2.10
2022-09-15T10:46:23.852Z,2.45
2022-09-15T10:49:24.150Z,2.75
2022-09-15T10:52:15.018Z,3.35
2022-09-15T10:54:59.813Z,2.85
2022-09-15T10:57:53.900Z,3.45
2022-09-15T11:00:25.530Z,3.88
2022-09-15T11:03:47.203Z,4.05
2022-09-15T11:06:30.486Z,4.07
2022-09-15T11:09:25.766Z,3.67
2022-09-15T11:12:05.645Z,3.45
2022-09-15T11:14:51.583Z,3.33
2022-09-15T11:17:34.034Z,3.15
2022-09-15T11:20:03.652Z,3.65
2022-09-15T11:22:45.039Z,3.88
2022-09-15T11:25:20.785Z,4.28
2022-09-15T11:27:59.903Z,5.30
2022-09-15T11:30:36.658Z,5.95
2022-09-15T11:33:12.335Z,5.88
2022-09-15T11:35:46.142Z,5.25
2022-09-15T11:38:15.429Z,5.80
2022-09-15T11:40:48.753Z,5.28
2022-09-15T11:43:34.002Z,5.40
2022-09-15T11:46:02.642Z,5.60
2022-09-15T11:48:36.236Z,6.20
2022-09-15T11:51:04.997Z,5.47
2022-09-15T11:54:00.566Z,5.90
2022-09-15T11:56:36.450Z,5.78
2022-09-15T11:59:26.837Z,6.68
2022-09-15T12:02:16.566Z,6.40
2022-09-15T12:04:57.725Z,6.00
2022-09-15T12:07:32.569Z,5.78
2022-09-15T12:10:17.801Z,5.53
2022-09-15T12:12:46.345Z,4.90
2022-09-15T12:15:19.167Z,4.93
2022-09-15T12:17:56.606Z,4.70
2022-09-15T12:20:30.186Z,4.90
2022-09-15T12:23:13.530Z,5.38
2022-09-15T12:26:21.837Z,5.15
2022-09-15T12:28:57.277Z,4.82
2022-09-15T12:31:34.568Z,4.50
2022-09-15T12:34:19.685Z,3.85
2022-09-15T12:36:48.199Z,3.60
2022-09-15T12:39:37.934Z,3.30
2022-09-15T12:42:18.914Z,3.67
2022-09-15T12:45:20.810Z,3.70
2022-09-15T12:48:21.268Z,3.72
2022-09-15T12:51:00.025Z,3.53
2022-09-15T12:53:30.636Z,3.28
2022-09-15T12:56:07.254Z,3.30
2022-09-15T12:58:44.667Z,3.47
2022-09-15T13:01:23.347Z,3.67
2022-09-15T13:03:49.968Z,2.92
2022-09-15T13:06:18.774Z,3.30
2022-09-15T13:08:49.701Z,3.17
2022-09-15T13:11:34.232Z,2.80
2022-09-15T13:14:03.520Z,3.05
2022-09-15T13:16:48.065Z,3.00
2022-09-15T13:19:24.575Z,3.03
2022-09-15T13:22:03.696Z,3.08
2022-09-15T13:24:38.014Z,2.80
2022-09-15T13:27:07.315Z,3.00
2022-09-15T13:29:40.596Z,3.50
2022-09-15T13:32:20.922Z,3.50
2022-09-15T13:35:17.122Z,3.47
2022-09-15T13:38:16.928Z,4.05
2022-09-15T13:40:57.582Z,4.10
2022-09-15T13:43:42.288Z,3.80
2022-09-15T13:46:41.446Z,4.00
2022-09-15T13:49:37.829Z,3.97
2022-09-15T13:52:22.093Z,4.90
2022-09-15T13:55:10.050Z,4.65
2022-09-15T14:00:33.777Z,4.80
2022-09-15T14:03:05.191Z,4.63
2022-09-15T14:05:34.771Z,3.47
2022-09-15T14:08:05.250Z,3.30
2022-09-15T14:10:41.483Z,3.90
2022-09-15T14:13:13.508Z,3.45
2022-09-15T14:15:40.084Z,3.13
2022-09-15T14:18:19.494Z,3.30
2022-09-15T14:20:59.596Z,3.22
2022-09-15T14:23:26.414Z,3.20
2022-09-15T14:25:53.029Z,3.17
2022-09-15T14:28:31.294Z,3.53
2022-09-15T14:31:00.494Z,3.30
2022-09-15T14:33:43.649Z,3.25
2022-09-15T14:36:20.651Z,3.03
2022-09-15T14:39:03.606Z,3.50
2022-09-15T14:41:33.277Z,3.65
2022-09-15T14:43:59.855Z,4.45
2022-09-15T14:46:37.037Z,4.10
2022-09-15T14:49:14.734Z,4.18
2022-09-15T14:51:43.526Z,4.30
2022-09-15T14:54:29.837Z,4.35
2022-09-15T14:57:01.188Z,3.67
2022-09-15T14:59:44.223Z,3.95
2022-09-15T15:02:34.978Z,3.38
2022-09-15T15:05:10.099Z,2.95
2022-09-15T15:10:26.440Z,3.00
2022-09-15T15:12:58.207Z,2.90
2022-09-15T15:15:25.125Z,2.70
2022-09-15T15:17:54.513Z,2.40
2022-09-15T15:20:30.013Z,2.70
2022-09-15T15:23:18.392Z,3.20
2022-09-15T15:25:46.921Z,3.05
2022-09-15T15:28:36.786Z,2.83
2022-09-15T15:31:13.996Z,2.80
2022-09-15T15:33:56.786Z,3.03
2022-09-15T15:36:24.880Z,2.80
2022-09-15T15:38:54.635Z,2.85
2022-09-15T15:41:27.337Z,3.20
2022-09-15T15:44:08.011Z,2.97
2022-09-15T15:47:13.376Z,3.05
2022-09-15T15:50:02.222Z,2.75
2022-09-15T15:52:26.391Z,2.92
2022-09-15T15:54:53.454Z,3.10
2022-09-15T15:57:25.773Z,2.70
2022-09-15T15:59:57.369Z,3.33
2022-09-15T16:02:25.634Z,3.15
2022-09-15T16:04:52.440Z,3.30
2022-09-15T16:07:23.166Z,3.30
2022-09-15T16:09:50.629Z,2.92
2022-09-15T16:12:17.311Z,3.28
2022-09-15T16:14:43.873Z,3.50
2022-09-15T16:17:10.738Z,3.20
2022-09-15T16:19:37.234Z,3.28
2022-09-15T16:22:03.838Z,3.47
2022-09-15T16:24:30.974Z,3.70
2022-09-15T16:26:58.603Z,3.60
2022-09-15T16:29:29.070Z,3.60
2022-09-15T16:31:55.620Z,3.20
2022-09-15T16:34:22.494Z,2.90
2022-09-15T16:36:49.117Z,3.20
2022-09-15T16:39:15.698Z,2.72
2022-09-15T16:41:42.369Z,2.85
2022-09-15T16:44:18.421Z,3.03
2022-09-15T16:46:45.112Z,3.40
2022-09-15T16:49:11.779Z,2.80
2022-09-15T16:51:38.327Z,2.83
2022-09-15T16:54:13.721Z,2.60
2022-09-15T16:56:40.407Z,2.80
2022-09-15T16:59:06.995Z,2.97
2022-09-15T17:01:33.631Z,2.67
2022-09-15T17:04:01.678Z,2.50
2022-09-15T17:06:28.174Z,2.75
2022-09-15T17:08:55.629Z,2.60
2022-09-15T17:11:25.047Z,3.10
2022-09-15T17:13:51.636Z,2.78
2022-09-15T17:16:19.606Z,2.80
2022-09-15T17:18:46.777Z,2.70
2022-09-15T17:21:15.924Z,2.55
2022-09-15T17:23:49.713Z,2.90
2022-09-15T17:26:31.074Z,3.20
2022-09-15T17:28:58.331Z,2.55
2022-09-15T17:31:25.060Z,2.60
2022-09-15T17:33:52.375Z,3.22
2022-09-15T17:36:19.252Z,2.70
2022-09-15T17:38:47.925Z,3.67
2022-09-15T17:41:19.748Z,3.25
2022-09-15T17:43:46.877Z,3.10
2022-09-15T17:46:13.603Z,3.10
2022-09-15T17:48:40.345Z,2.80
2022-09-15T17:51:07.834Z,2.90
2022-09-15T17:53:34.417Z,2.75
2022-09-15T17:56:01.255Z,3.03
2022-09-15T17:58:29.817Z,2.90
2022-09-15T18:00:57.297Z,3.00
2022-09-15T18:03:33.903Z,2.78
2022-09-15T18:06:04.229Z,2.90
2022-09-15T18:08:32.676Z,2.95
2022-09-15T18:11:00.514Z,2.90
2022-09-15T18:13:29.535Z,3.15
2022-09-15T18:15:56.883Z,3.40
2022-09-15T18:18:26.407Z,3.60
2022-09-15T18:20:55.074Z,3.25
2022-09-15T18:23:24.149Z,3.20
2022-09-15T18:25:51.148Z,3.30
2022-09-15T18:28:18.297Z,3.72
2022-09-15T18:30:47.635Z,3.63
2022-09-15T18:33:22.666Z,3.38
2022-09-15T18:35:51.586Z,3.60
2022-09-15T18:38:19.016Z,3.80
2022-09-15T18:40:48.860Z,3.50
2022-09-15T18:43:17.354Z,3.22
2022-09-15T18:45:44.133Z,3.30
2022-09-15T18:48:12.922Z,3.33
2022-09-15T18:50:41.246Z,3.67
2022-09-15T18:53:08.079Z,3.55
2022-09-15T18:55:34.642Z,3.10
2022-09-15T18:58:01.504Z,2.90
2022-09-15T19:00:28.920Z,2.88
2022-09-15T19:03:02.633Z,2.88
2022-09-15T19:05:30.543Z,2.60
2022-09-15T19:07:57.584Z,2.70
2022-09-15T19:10:26.721Z,3.05
2022-09-15T19:12:53.912Z,2.47
2022-09-15T19:15:23.583Z,2.80
2022-09-15T19:17:50.985Z,2.78
2022-09-15T19:20:17.934Z,2.67
2022-09-15T19:22:44.675Z,2.50
2022-09-15T19:25:12.014Z,2.42
2022-09-15T19:27:39.120Z,2.28
2022-09-15T19:30:07.327Z,2.33
2022-09-15T19:32:34.170Z,2.15
2022-09-15T19:35:00.722Z,2.10
2022-09-15T19:37:27.276Z,2.63
2022-09-15T19:39:54.731Z,2.13
2022-09-15T19:42:21.352Z,2.10
2022-09-15T19:44:49.297Z,2.10
2022-09-15T19:47:16.406Z,2.17
2022-09-15T19:49:43.081Z,2.17
2022-09-15T19:52:09.691Z,2.10
2022-09-15T19:54:36.370Z,2.33
2022-09-15T19:57:03.974Z,2.40
2022-09-15T19:59:31.868Z,2.10
2022-09-15T20:01:59.926Z,2.40
2022-09-15T20:04:27.662Z,2.10
2022-09-15T20:06:54.295Z,1.98
2022-09-15T20:09:20.903Z,2.22
2022-09-15T20:11:47.510Z,2.28
2022-09-15T20:14:14.602Z,2.08
2022-09-15T20:16:41.539Z,2.30
2022-09-15T20:19:08.577Z,2.17
2022-09-15T20:21:52.251Z,2.10
2022-09-15T20:24:20.283Z,2.00
2022-09-15T20:26:47.362Z,2.00
2022-09-15T20:29:14.231Z,2.20
2022-09-15T20:31:41.364Z,2.05
2022-09-15T20:34:07.892Z,1.80
2022-09-15T20:36:37.168Z,2.33
2022-09-15T20:39:06.371Z,1.88
2022-09-15T20:41:32.968Z,1.90
2022-09-15T20:44:00.053Z,1.80
2022-09-15T20:46:29.006Z,1.98
2022-09-15T20:48:55.514Z,1.95
2022-09-15T20:51:24.309Z,1.60
2022-09-15T20:53:53.050Z,1.90
2022-09-15T20:56:24.559Z,1.77
2022-09-15T20:58:56.473Z,1.90
2022-09-15T21:01:28.524Z,1.83
2022-09-15T21:03:55.878Z,1.70
2022-09-15T21:06:25.001Z,1.65
2022-09-15T21:08:52.995Z,1.80
2022-09-15T21:11:21.081Z,1.80
2022-09-15T21:13:48.324Z,1.50
2022-09-15T21:16:18.237Z,2.00
2022-09-15T21:18:45.387Z,1.95
2022-09-15T21:21:20.811Z,1.40
2022-09-15T21:23:56.129Z,1.50
2022-09-15T21:26:25.498Z,1.80
2022-09-15T21:28:52.986Z,1.70
2022-09-15T21:31:25.992Z,1.63
2022-09-15T21:33:53.995Z,2.20
2022-09-15T21:36:23.063Z,1.90
2022-09-15T21:38:51.187Z,2.00
2022-09-15T21:41:21.361Z,2.08
2022-09-15T21:43:49.713Z,1.75
2022-09-15T21:46:18.456Z,1.73
2022-09-15T21:48:47.130Z,1.73
2022-09-15T21:51:15.547Z,1.45
2022-09-15T21:53:42.839Z,1.90
2022-09-15T21:56:11.806Z,1.60
2022-09-15T21:58:42.997Z,1.65
2022-09-15T22:01:14.029Z,1.50
2022-09-15T22:03:44.352Z,1.60
2022-09-15T22:06:12.479Z,1.77
2022-09-15T22:08:39.981Z,1.60
2022-09-15T22:11:07.920Z,1.80
2022-09-15T22:13:36.595Z,1.60
2022-09-15T22:16:05.996Z,1.90
2022-09-15T22:18:35.044Z,1.40
2022-09-15T22:21:05.514Z,1.55
2022-09-15T22:23:32.315Z,1.80
2022-09-15T22:26:07.502Z,1.60
2022-09-15T22:31:02.715Z,1.70
2022-09-15T22:33:29.836Z,1.50
2022-09-15T22:35:56.991Z,1.80
2022-09-15T22:38:26.400Z,2.03
2022-09-15T22:40:53.035Z,1.63
2022-09-15T22:43:19.886Z,1.70
2022-09-15T22:45:46.660Z,1.85
2022-09-15T22:48:13.275Z,1.60
2022-09-15T22:50:39.847Z,1.77
2022-09-15T22:53:06.601Z,2.33
2022-09-15T22:55:33.130Z,1.65
2022-09-15T22:57:59.686Z,1.75
2022-09-15T23:00:27.065Z,1.85
2022-09-15T23:02:53.883Z,1.80
2022-09-15T23:05:20.404Z,2.17
2022-09-15T23:07:46.902Z,1.75
2022-09-15T23:10:13.485Z,1.85
2022-09-15T23:12:40.353Z,1.65
2022-09-15T23:15:07.384Z,1.70
2022-09-15T23:17:34.491Z,1.70
2022-09-15T23:20:01.277Z,1.83
2022-09-15T23:22:27.884Z,1.42
2022-09-15T23:24:54.388Z,1.60
2022-09-15T23:27:20.912Z,1.23
2022-09-15T23:29:47.565Z,1.67
2022-09-15T23:32:14.069Z,1.20
2022-09-15T23:34:40.576Z,1.60
2022-09-15T23:37:07.169Z,1.42
2022-09-15T23:39:33.762Z,1.63
2022-09-15T23:42:01.211Z,1.38
2022-09-15T23:44:28.099Z,1.40
2022-09-15T23:46:54.667Z,1.30
2022-09-15T23:49:21.205Z,1.80
2022-09-15T23:51:47.800Z,1.67
2022-09-15T23:54:14.439Z,1.40
2022-09-15T23:56:40.950Z,1.55
2022-09-15T23:59:07.479Z,1.70
